sensor_id;sensor_type;location;lat;lon;timestamp;P1;durP1;ratioP1;P2;durP2;ratioP2
52494;SDS011;38405;53.212;5.660;2022-11-23T00:02:18;17.92;;;10.25;;
52494;SDS011;38405;53.212;5.660;2022-11-23T00:04:43;16.33;;;10.48;;
52494;SDS011;38405;53.212;5.660;2022-11-23T00:07:09;18.27;;;10.55;;
52494;SDS011;38405;53.212;5.660;2022-11-23T00:09:34;16.38;;;10.18;;
52494;SDS011;38405;53.212;5.660;2022-11-23T00:12:00;16.65;;;10.73;;
52494;SDS011;38405;53.212;5.660;2022-11-23T00:14:26;14.00;;;10.00;;
52494;SDS011;38405;53.212;5.660;2022-11-23T00:16:51;15.45;;;9.60;;
52494;SDS011;38405;53.212;5.660;2022-11-23T00:19:17;14.98;;;10.75;;
52494;SDS011;38405;53.212;5.660;2022-11-23T00:21:42;18.70;;;9.98;;
52494;SDS011;38405;53.212;5.660;2022-11-23T00:24:10;19.15;;;9.98;;
52494;SDS011;38405;53.212;5.660;2022-11-23T00:26:36;17.23;;;10.70;;
52494;SDS011;38405;53.212;5.660;2022-11-23T00:29:02;18.80;;;10.68;;
52494;SDS011;38405;53.212;5.660;2022-11-23T00:31:28;18.73;;;10.90;;
52494;SDS011;38405;53.212;5.660;2022-11-23T00:33:53;16.15;;;9.73;;
52494;SDS011;38405;53.212;5.660;2022-11-23T00:36:20;17.50;;;10.85;;
52494;SDS011;38405;53.212;5.660;2022-11-23T00:38:48;17.30;;;11.27;;
52494;SDS011;38405;53.212;5.660;2022-11-23T00:41:16;14.60;;;9.60;;
52494;SDS011;38405;53.212;5.660;2022-11-23T00:43:43;18.40;;;9.23;;
52494;SDS011;38405;53.212;5.660;2022-11-23T00:46:25;18.50;;;10.00;;
52494;SDS011;38405;53.212;5.660;2022-11-23T00:48:53;16.50;;;9.27;;
52494;SDS011;38405;53.212;5.660;2022-11-23T00:51:21;18.10;;;10.57;;
52494;SDS011;38405;53.212;5.660;2022-11-23T00:53:48;17.83;;;10.63;;
52494;SDS011;38405;53.212;5.660;2022-11-23T00:56:15;18.20;;;10.88;;
52494;SDS011;38405;53.212;5.660;2022-11-23T00:58:42;19.65;;;10.75;;
52494;SDS011;38405;53.212;5.660;2022-11-23T01:01:15;21.05;;;11.27;;
52494;SDS011;38405;53.212;5.660;2022-11-23T01:03:43;17.60;;;10.60;;
52494;SDS011;38405;53.212;5.660;2022-11-23T01:06:12;20.85;;;10.65;;
52494;SDS011;38405;53.212;5.660;2022-11-23T01:08:40;19.83;;;11.50;;
52494;SDS011;38405;53.212;5.660;2022-11-23T01:11:07;18.58;;;11.88;;
52494;SDS011;38405;53.212;5.660;2022-11-23T01:13:36;21.73;;;11.75;;
52494;SDS011;38405;53.212;5.660;2022-11-23T01:16:03;23.25;;;11.30;;
52494;SDS011;38405;53.212;5.660;2022-11-23T01:18:31;19.60;;;11.70;;
52494;SDS011;38405;53.212;5.660;2022-11-23T01:20:57;19.67;;;11.85;;
52494;SDS011;38405;53.212;5.660;2022-11-23T01:23:28;18.55;;;11.82;;
52494;SDS011;38405;53.212;5.660;2022-11-23T01:25:54;23.35;;;13.60;;
52494;SDS011;38405;53.212;5.660;2022-11-23T01:28:20;24.45;;;13.10;;
52494;SDS011;38405;53.212;5.660;2022-11-23T01:31:01;24.63;;;13.88;;
52494;SDS011;38405;53.212;5.660;2022-11-23T01:33:34;27.13;;;13.40;;
52494;SDS011;38405;53.212;5.660;2022-11-23T01:36:07;23.85;;;13.05;;
52494;SDS011;38405;53.212;5.660;2022-11-23T01:38:33;21.05;;;14.05;;
52494;SDS011;38405;53.212;5.660;2022-11-23T01:40:59;25.88;;;13.45;;
52494;SDS011;38405;53.212;5.660;2022-11-23T01:43:24;23.67;;;13.88;;
52494;SDS011;38405;53.212;5.660;2022-11-23T01:45:56;22.73;;;13.32;;
52494;SDS011;38405;53.212;5.660;2022-11-23T01:48:33;23.60;;;14.93;;
52494;SDS011;38405;53.212;5.660;2022-11-23T01:51:07;26.35;;;13.82;;
52494;SDS011;38405;53.212;5.660;2022-11-23T01:53:56;22.02;;;13.60;;
52494;SDS011;38405;53.212;5.660;2022-11-23T01:56:25;24.88;;;14.30;;
52494;SDS011;38405;53.212;5.660;2022-11-23T01:58:55;27.52;;;14.68;;
52494;SDS011;38405;53.212;5.660;2022-11-23T02:01:24;25.08;;;15.98;;
52494;SDS011;38405;53.212;5.660;2022-11-23T02:03:50;24.73;;;16.52;;
52494;SDS011;38405;53.212;5.660;2022-11-23T02:06:17;27.38;;;15.50;;
52494;SDS011;38405;53.212;5.660;2022-11-23T02:08:45;24.92;;;14.68;;
52494;SDS011;38405;53.212;5.660;2022-11-23T02:11:12;27.20;;;15.50;;
52494;SDS011;38405;53.212;5.660;2022-11-23T02:13:39;29.77;;;15.73;;
52494;SDS011;38405;53.212;5.660;2022-11-23T02:16:06;27.98;;;17.13;;
52494;SDS011;38405;53.212;5.660;2022-11-23T02:18:32;29.15;;;17.70;;
52494;SDS011;38405;53.212;5.660;2022-11-23T02:20:59;40.42;;;18.58;;
52494;SDS011;38405;53.212;5.660;2022-11-23T02:26:30;30.13;;;18.08;;
52494;SDS011;38405;53.212;5.660;2022-11-23T02:31:32;29.45;;;18.10;;
52494;SDS011;38405;53.212;5.660;2022-11-23T02:33:58;31.17;;;17.75;;
52494;SDS011;38405;53.212;5.660;2022-11-23T02:36:33;36.70;;;19.40;;
52494;SDS011;38405;53.212;5.660;2022-11-23T02:41:40;37.85;;;18.35;;
52494;SDS011;38405;53.212;5.660;2022-11-23T02:44:07;28.10;;;17.52;;
52494;SDS011;38405;53.212;5.660;2022-11-23T02:46:52;32.58;;;18.30;;
52494;SDS011;38405;53.212;5.660;2022-11-23T02:49:18;29.85;;;16.88;;
52494;SDS011;38405;53.212;5.660;2022-11-23T02:51:44;35.80;;;18.77;;
52494;SDS011;38405;53.212;5.660;2022-11-23T02:54:09;30.02;;;17.58;;
52494;SDS011;38405;53.212;5.660;2022-11-23T02:56:35;38.58;;;21.05;;
52494;SDS011;38405;53.212;5.660;2022-11-23T02:59:01;28.88;;;18.05;;
52494;SDS011;38405;53.212;5.660;2022-11-23T03:01:26;36.95;;;19.35;;
52494;SDS011;38405;53.212;5.660;2022-11-23T03:03:53;33.33;;;19.35;;
52494;SDS011;38405;53.212;5.660;2022-11-23T03:06:18;41.03;;;19.77;;
52494;SDS011;38405;53.212;5.660;2022-11-23T03:08:44;34.78;;;19.75;;
52494;SDS011;38405;53.212;5.660;2022-11-23T03:11:09;38.03;;;21.75;;
52494;SDS011;38405;53.212;5.660;2022-11-23T03:13:35;35.92;;;20.67;;
52494;SDS011;38405;53.212;5.660;2022-11-23T03:16:01;37.65;;;20.38;;
52494;SDS011;38405;53.212;5.660;2022-11-23T03:18:26;38.70;;;21.25;;
52494;SDS011;38405;53.212;5.660;2022-11-23T03:20:52;37.92;;;22.10;;
52494;SDS011;38405;53.212;5.660;2022-11-23T03:23:17;37.55;;;22.13;;
52494;SDS011;38405;53.212;5.660;2022-11-23T03:25:43;47.08;;;22.60;;
52494;SDS011;38405;53.212;5.660;2022-11-23T03:28:09;40.30;;;22.17;;
52494;SDS011;38405;53.212;5.660;2022-11-23T03:30:34;42.67;;;21.40;;
52494;SDS011;38405;53.212;5.660;2022-11-23T03:33:00;40.75;;;20.70;;
52494;SDS011;38405;53.212;5.660;2022-11-23T03:35:25;38.95;;;21.02;;
52494;SDS011;38405;53.212;5.660;2022-11-23T03:37:51;44.33;;;22.08;;
52494;SDS011;38405;53.212;5.660;2022-11-23T03:40:17;44.83;;;23.15;;
52494;SDS011;38405;53.212;5.660;2022-11-23T03:42:42;41.72;;;22.35;;
52494;SDS011;38405;53.212;5.660;2022-11-23T03:45:08;46.45;;;22.83;;
52494;SDS011;38405;53.212;5.660;2022-11-23T03:47:34;39.42;;;21.58;;
52494;SDS011;38405;53.212;5.660;2022-11-23T03:50:00;49.88;;;22.95;;
52494;SDS011;38405;53.212;5.660;2022-11-23T03:52:25;39.35;;;21.02;;
52494;SDS011;38405;53.212;5.660;2022-11-23T03:54:51;40.30;;;21.85;;
52494;SDS011;38405;53.212;5.660;2022-11-23T03:57:17;37.90;;;21.98;;
52494;SDS011;38405;53.212;5.660;2022-11-23T03:59:42;45.70;;;22.27;;
52494;SDS011;38405;53.212;5.660;2022-11-23T04:02:08;37.90;;;21.02;;
52494;SDS011;38405;53.212;5.660;2022-11-23T04:04:34;43.42;;;23.20;;
52494;SDS011;38405;53.212;5.660;2022-11-23T04:07:00;49.13;;;24.63;;
52494;SDS011;38405;53.212;5.660;2022-11-23T04:09:26;47.92;;;22.85;;
52494;SDS011;38405;53.212;5.660;2022-11-23T04:11:51;43.70;;;24.45;;
52494;SDS011;38405;53.212;5.660;2022-11-23T04:14:17;45.30;;;22.80;;
52494;SDS011;38405;53.212;5.660;2022-11-23T04:16:43;42.90;;;23.80;;
52494;SDS011;38405;53.212;5.660;2022-11-23T04:19:08;41.13;;;22.27;;
52494;SDS011;38405;53.212;5.660;2022-11-23T04:21:34;38.05;;;21.90;;
52494;SDS011;38405;53.212;5.660;2022-11-23T04:23:59;42.92;;;23.58;;
52494;SDS011;38405;53.212;5.660;2022-11-23T04:26:25;48.75;;;25.00;;
52494;SDS011;38405;53.212;5.660;2022-11-23T04:28:51;41.15;;;23.73;;
52494;SDS011;38405;53.212;5.660;2022-11-23T04:31:16;36.35;;;22.50;;
52494;SDS011;38405;53.212;5.660;2022-11-23T04:33:42;42.90;;;22.77;;
52494;SDS011;38405;53.212;5.660;2022-11-23T04:36:07;36.40;;;21.65;;
52494;SDS011;38405;53.212;5.660;2022-11-23T04:38:33;50.95;;;23.20;;
52494;SDS011;38405;53.212;5.660;2022-11-23T04:40:59;48.40;;;23.30;;
52494;SDS011;38405;53.212;5.660;2022-11-23T04:43:24;37.92;;;21.35;;
52494;SDS011;38405;53.212;5.660;2022-11-23T04:45:50;40.58;;;21.70;;
52494;SDS011;38405;53.212;5.660;2022-11-23T04:48:16;45.25;;;21.70;;
52494;SDS011;38405;53.212;5.660;2022-11-23T04:50:41;44.35;;;22.00;;
52494;SDS011;38405;53.212;5.660;2022-11-23T04:53:07;41.20;;;21.70;;
52494;SDS011;38405;53.212;5.660;2022-11-23T04:55:33;38.97;;;20.45;;
52494;SDS011;38405;53.212;5.660;2022-11-23T04:57:59;39.60;;;20.60;;
52494;SDS011;38405;53.212;5.660;2022-11-23T05:00:24;44.53;;;20.58;;
52494;SDS011;38405;53.212;5.660;2022-11-23T05:02:50;40.75;;;20.70;;
52494;SDS011;38405;53.212;5.660;2022-11-23T05:05:16;37.60;;;19.60;;
52494;SDS011;38405;53.212;5.660;2022-11-23T05:07:42;36.13;;;18.90;;
52494;SDS011;38405;53.212;5.660;2022-11-23T05:10:07;37.40;;;19.05;;
52494;SDS011;38405;53.212;5.660;2022-11-23T05:12:33;39.58;;;20.20;;
52494;SDS011;38405;53.212;5.660;2022-11-23T05:15:00;34.22;;;18.73;;
52494;SDS011;38405;53.212;5.660;2022-11-23T05:17:26;48.58;;;20.70;;
52494;SDS011;38405;53.212;5.660;2022-11-23T05:19:51;44.08;;;19.88;;
52494;SDS011;38405;53.212;5.660;2022-11-23T05:22:17;29.13;;;17.83;;
52494;SDS011;38405;53.212;5.660;2022-11-23T05:24:42;38.33;;;19.80;;
52494;SDS011;38405;53.212;5.660;2022-11-23T05:27:08;41.50;;;19.42;;
52494;SDS011;38405;53.212;5.660;2022-11-23T05:29:34;44.83;;;20.02;;
52494;SDS011;38405;53.212;5.660;2022-11-23T05:32:01;40.95;;;18.70;;
52494;SDS011;38405;53.212;5.660;2022-11-23T05:34:26;32.75;;;17.60;;
52494;SDS011;38405;53.212;5.660;2022-11-23T05:36:52;39.50;;;19.27;;
52494;SDS011;38405;53.212;5.660;2022-11-23T05:39:17;51.28;;;20.60;;
52494;SDS011;38405;53.212;5.660;2022-11-23T05:41:43;40.72;;;19.60;;
52494;SDS011;38405;53.212;5.660;2022-11-23T05:44:08;40.83;;;20.90;;
52494;SDS011;38405;53.212;5.660;2022-11-23T05:46:34;44.25;;;19.38;;
52494;SDS011;38405;53.212;5.660;2022-11-23T05:49:00;47.03;;;20.88;;
52494;SDS011;38405;53.212;5.660;2022-11-23T05:51:25;41.13;;;21.85;;
52494;SDS011;38405;53.212;5.660;2022-11-23T05:53:51;39.83;;;21.30;;
52494;SDS011;38405;53.212;5.660;2022-11-23T05:56:17;43.17;;;21.75;;
52494;SDS011;38405;53.212;5.660;2022-11-23T05:58:42;39.83;;;20.98;;
52494;SDS011;38405;53.212;5.660;2022-11-23T06:01:08;42.33;;;23.05;;
52494;SDS011;38405;53.212;5.660;2022-11-23T06:03:33;43.92;;;21.30;;
52494;SDS011;38405;53.212;5.660;2022-11-23T06:05:59;40.33;;;22.55;;
52494;SDS011;38405;53.212;5.660;2022-11-23T06:08:25;44.80;;;22.17;;
52494;SDS011;38405;53.212;5.660;2022-11-23T06:10:50;50.33;;;23.58;;
52494;SDS011;38405;53.212;5.660;2022-11-23T06:13:16;38.53;;;22.08;;
52494;SDS011;38405;53.212;5.660;2022-11-23T06:15:41;39.92;;;23.63;;
52494;SDS011;38405;53.212;5.660;2022-11-23T06:18:07;44.35;;;23.55;;
52494;SDS011;38405;53.212;5.660;2022-11-23T06:20:33;45.97;;;23.73;;
52494;SDS011;38405;53.212;5.660;2022-11-23T06:22:59;38.85;;;22.13;;
52494;SDS011;38405;53.212;5.660;2022-11-23T06:25:24;42.38;;;22.40;;
52494;SDS011;38405;53.212;5.660;2022-11-23T06:27:59;37.55;;;21.65;;
52494;SDS011;38405;53.212;5.660;2022-11-23T06:30:26;40.88;;;23.58;;
52494;SDS011;38405;53.212;5.660;2022-11-23T06:32:53;35.55;;;21.27;;
52494;SDS011;38405;53.212;5.660;2022-11-23T06:35:18;44.45;;;22.95;;
52494;SDS011;38405;53.212;5.660;2022-11-23T06:37:46;41.67;;;22.92;;
52494;SDS011;38405;53.212;5.660;2022-11-23T06:40:12;38.50;;;22.75;;
52494;SDS011;38405;53.212;5.660;2022-11-23T06:42:38;34.95;;;20.85;;
52494;SDS011;38405;53.212;5.660;2022-11-23T06:45:04;34.65;;;20.75;;
52494;SDS011;38405;53.212;5.660;2022-11-23T06:47:30;32.08;;;20.58;;
52494;SDS011;38405;53.212;5.660;2022-11-23T06:49:56;35.80;;;20.95;;
52494;SDS011;38405;53.212;5.660;2022-11-23T06:52:21;31.27;;;19.90;;
52494;SDS011;38405;53.212;5.660;2022-11-23T06:54:47;35.88;;;21.35;;
52494;SDS011;38405;53.212;5.660;2022-11-23T06:57:12;39.08;;;21.23;;
52494;SDS011;38405;53.212;5.660;2022-11-23T06:59:38;37.10;;;19.48;;
52494;SDS011;38405;53.212;5.660;2022-11-23T07:02:03;36.42;;;21.85;;
52494;SDS011;38405;53.212;5.660;2022-11-23T07:04:30;30.35;;;19.38;;
52494;SDS011;38405;53.212;5.660;2022-11-23T07:06:56;34.30;;;20.25;;
52494;SDS011;38405;53.212;5.660;2022-11-23T07:09:21;31.45;;;19.30;;
52494;SDS011;38405;53.212;5.660;2022-11-23T07:11:47;28.67;;;18.38;;
52494;SDS011;38405;53.212;5.660;2022-11-23T07:14:13;35.50;;;20.63;;
52494;SDS011;38405;53.212;5.660;2022-11-23T07:16:38;31.60;;;20.70;;
52494;SDS011;38405;53.212;5.660;2022-11-23T07:19:04;29.25;;;18.52;;
52494;SDS011;38405;53.212;5.660;2022-11-23T07:21:30;38.42;;;21.08;;
52494;SDS011;38405;53.212;5.660;2022-11-23T07:23:55;31.13;;;19.75;;
52494;SDS011;38405;53.212;5.660;2022-11-23T07:26:21;33.03;;;19.00;;
52494;SDS011;38405;53.212;5.660;2022-11-23T07:28:47;34.38;;;18.95;;
52494;SDS011;38405;53.212;5.660;2022-11-23T07:31:12;30.13;;;18.25;;
52494;SDS011;38405;53.212;5.660;2022-11-23T07:33:42;29.98;;;18.63;;
52494;SDS011;38405;53.212;5.660;2022-11-23T07:36:11;30.02;;;18.42;;
52494;SDS011;38405;53.212;5.660;2022-11-23T07:38:37;31.20;;;17.02;;
52494;SDS011;38405;53.212;5.660;2022-11-23T07:41:03;32.40;;;18.00;;
52494;SDS011;38405;53.212;5.660;2022-11-23T07:43:29;26.55;;;17.38;;
52494;SDS011;38405;53.212;5.660;2022-11-23T07:45:55;25.65;;;16.33;;
52494;SDS011;38405;53.212;5.660;2022-11-23T07:48:21;32.13;;;15.88;;
52494;SDS011;38405;53.212;5.660;2022-11-23T07:50:50;25.67;;;16.27;;
52494;SDS011;38405;53.212;5.660;2022-11-23T07:53:16;26.80;;;15.63;;
52494;SDS011;38405;53.212;5.660;2022-11-23T07:55:42;22.27;;;14.98;;
52494;SDS011;38405;53.212;5.660;2022-11-23T07:58:08;27.60;;;16.27;;
52494;SDS011;38405;53.212;5.660;2022-11-23T08:00:34;22.50;;;14.32;;
52494;SDS011;38405;53.212;5.660;2022-11-23T08:03:00;24.48;;;14.55;;
52494;SDS011;38405;53.212;5.660;2022-11-23T08:05:26;25.02;;;15.43;;
52494;SDS011;38405;53.212;5.660;2022-11-23T08:07:56;24.55;;;14.45;;
52494;SDS011;38405;53.212;5.660;2022-11-23T08:10:23;23.02;;;14.25;;
52494;SDS011;38405;53.212;5.660;2022-11-23T08:12:49;19.70;;;13.40;;
52494;SDS011;38405;53.212;5.660;2022-11-23T08:15:15;23.08;;;13.70;;
52494;SDS011;38405;53.212;5.660;2022-11-23T08:17:40;21.48;;;13.73;;
52494;SDS011;38405;53.212;5.660;2022-11-23T08:20:06;17.70;;;11.63;;
52494;SDS011;38405;53.212;5.660;2022-11-23T08:22:32;21.58;;;11.57;;
52494;SDS011;38405;53.212;5.660;2022-11-23T08:24:57;23.83;;;12.25;;
52494;SDS011;38405;53.212;5.660;2022-11-23T08:27:23;24.10;;;12.68;;
52494;SDS011;38405;53.212;5.660;2022-11-23T08:29:48;21.63;;;11.98;;
52494;SDS011;38405;53.212;5.660;2022-11-23T08:32:14;21.63;;;12.32;;
52494;SDS011;38405;53.212;5.660;2022-11-23T08:34:41;23.25;;;11.55;;
52494;SDS011;38405;53.212;5.660;2022-11-23T08:37:08;21.23;;;11.48;;
52494;SDS011;38405;53.212;5.660;2022-11-23T08:39:33;23.55;;;11.80;;
52494;SDS011;38405;53.212;5.660;2022-11-23T08:41:59;22.17;;;11.45;;
52494;SDS011;38405;53.212;5.660;2022-11-23T08:44:25;18.83;;;11.25;;
52494;SDS011;38405;53.212;5.660;2022-11-23T08:46:50;21.95;;;10.30;;
52494;SDS011;38405;53.212;5.660;2022-11-23T08:49:16;19.75;;;11.20;;
52494;SDS011;38405;53.212;5.660;2022-11-23T08:51:41;18.42;;;11.52;;
52494;SDS011;38405;53.212;5.660;2022-11-23T08:54:07;23.17;;;12.38;;
52494;SDS011;38405;53.212;5.660;2022-11-23T08:56:32;19.30;;;11.93;;
52494;SDS011;38405;53.212;5.660;2022-11-23T08:58:58;22.10;;;12.07;;
52494;SDS011;38405;53.212;5.660;2022-11-23T09:01:24;24.00;;;11.95;;
52494;SDS011;38405;53.212;5.660;2022-11-23T09:03:50;18.90;;;11.35;;
52494;SDS011;38405;53.212;5.660;2022-11-23T09:06:15;22.30;;;12.05;;
52494;SDS011;38405;53.212;5.660;2022-11-23T09:08:41;21.38;;;12.13;;
52494;SDS011;38405;53.212;5.660;2022-11-23T09:11:07;21.15;;;12.30;;
52494;SDS011;38405;53.212;5.660;2022-11-23T09:13:36;21.15;;;12.85;;
52494;SDS011;38405;53.212;5.660;2022-11-23T09:16:02;24.50;;;12.73;;
52494;SDS011;38405;53.212;5.660;2022-11-23T09:18:28;22.15;;;13.05;;
52494;SDS011;38405;53.212;5.660;2022-11-23T09:20:55;20.98;;;12.60;;
52494;SDS011;38405;53.212;5.660;2022-11-23T09:23:21;19.48;;;12.52;;
52494;SDS011;38405;53.212;5.660;2022-11-23T09:25:47;19.67;;;12.45;;
52494;SDS011;38405;53.212;5.660;2022-11-23T09:28:14;23.08;;;12.02;;
52494;SDS011;38405;53.212;5.660;2022-11-23T09:30:43;19.92;;;11.30;;
52494;SDS011;38405;53.212;5.660;2022-11-23T09:33:12;15.68;;;11.13;;
52494;SDS011;38405;53.212;5.660;2022-11-23T09:35:38;21.08;;;11.60;;
52494;SDS011;38405;53.212;5.660;2022-11-23T09:38:04;20.52;;;11.27;;
52494;SDS011;38405;53.212;5.660;2022-11-23T09:40:31;21.70;;;10.85;;
52494;SDS011;38405;53.212;5.660;2022-11-23T09:45:52;18.70;;;11.02;;
52494;SDS011;38405;53.212;5.660;2022-11-23T09:51:26;22.33;;;10.80;;
52494;SDS011;38405;53.212;5.660;2022-11-23T09:53:53;19.85;;;9.65;;
52494;SDS011;38405;53.212;5.660;2022-11-23T09:56:26;16.45;;;8.90;;
52494;SDS011;38405;53.212;5.660;2022-11-23T09:59:01;22.98;;;8.50;;
52494;SDS011;38405;53.212;5.660;2022-11-23T10:01:35;20.63;;;7.53;;
52494;SDS011;38405;53.212;5.660;2022-11-23T10:04:02;16.13;;;7.00;;
52494;SDS011;38405;53.212;5.660;2022-11-23T10:06:29;16.63;;;6.10;;
52494;SDS011;38405;53.212;5.660;2022-11-23T10:26:19;17.27;;;6.40;;
52494;SDS011;38405;53.212;5.660;2022-11-23T10:28:50;15.02;;;5.82;;
52494;SDS011;38405;53.212;5.660;2022-11-23T10:31:17;13.57;;;5.00;;
52494;SDS011;38405;53.212;5.660;2022-11-23T10:33:55;15.52;;;5.50;;
52494;SDS011;38405;53.212;5.660;2022-11-23T10:36:36;18.65;;;6.00;;
52494;SDS011;38405;53.212;5.660;2022-11-23T10:39:08;20.77;;;5.97;;
52494;SDS011;38405;53.212;5.660;2022-11-23T10:41:40;18.25;;;4.78;;
52494;SDS011;38405;53.212;5.660;2022-11-23T10:51:52;18.40;;;4.97;;
52494;SDS011;38405;53.212;5.660;2022-11-23T10:54:28;15.07;;;4.38;;
52494;SDS011;38405;53.212;5.660;2022-11-23T11:02:37;21.05;;;4.65;;
52494;SDS011;38405;53.212;5.660;2022-11-23T11:08:02;15.43;;;3.60;;
52494;SDS011;38405;53.212;5.660;2022-11-23T11:10:38;17.10;;;3.97;;
52494;SDS011;38405;53.212;5.660;2022-11-23T11:13:19;14.93;;;3.55;;
52494;SDS011;38405;53.212;5.660;2022-11-23T11:15:50;11.00;;;2.95;;
52494;SDS011;38405;53.212;5.660;2022-11-23T11:18:19;13.32;;;3.40;;
52494;SDS011;38405;53.212;5.660;2022-11-23T11:20:45;9.48;;;3.47;;
52494;SDS011;38405;53.212;5.660;2022-11-23T11:23:15;13.73;;;3.65;;
52494;SDS011;38405;53.212;5.660;2022-11-23T11:28:17;12.25;;;3.40;;
52494;SDS011;38405;53.212;5.660;2022-11-23T11:33:52;13.05;;;3.13;;
52494;SDS011;38405;53.212;5.660;2022-11-23T11:36:29;22.08;;;3.13;;
52494;SDS011;38405;53.212;5.660;2022-11-23T11:38:59;19.40;;;4.38;;
52494;SDS011;38405;53.212;5.660;2022-11-23T11:41:38;13.80;;;3.55;;
52494;SDS011;38405;53.212;5.660;2022-11-23T11:44:08;12.98;;;3.17;;
52494;SDS011;38405;53.212;5.660;2022-11-23T11:46:43;16.40;;;3.47;;
52494;SDS011;38405;53.212;5.660;2022-11-23T11:49:17;16.63;;;4.13;;
52494;SDS011;38405;53.212;5.660;2022-11-23T11:54:48;12.75;;;3.38;;
52494;SDS011;38405;53.212;5.660;2022-11-23T11:57:37;13.37;;;2.70;;
52494;SDS011;38405;53.212;5.660;2022-11-23T12:00:16;12.82;;;3.13;;
52494;SDS011;38405;53.212;5.660;2022-11-23T12:10:59;9.63;;;2.58;;
52494;SDS011;38405;53.212;5.660;2022-11-23T12:13:33;11.63;;;3.15;;
52494;SDS011;38405;53.212;5.660;2022-11-23T12:16:07;12.55;;;3.13;;
52494;SDS011;38405;53.212;5.660;2022-11-23T12:19:03;16.98;;;3.13;;
52494;SDS011;38405;53.212;5.660;2022-11-23T12:27:38;18.50;;;3.60;;
52494;SDS011;38405;53.212;5.660;2022-11-23T12:30:25;12.57;;;3.03;;
52494;SDS011;38405;53.212;5.660;2022-11-23T12:33:07;17.55;;;3.45;;
52494;SDS011;38405;53.212;5.660;2022-11-23T12:41:23;12.98;;;3.00;;
52494;SDS011;38405;53.212;5.660;2022-11-23T12:47:22;19.55;;;4.22;;
52494;SDS011;38405;53.212;5.660;2022-11-23T12:52:57;13.18;;;3.03;;
52494;SDS011;38405;53.212;5.660;2022-11-23T12:55:45;18.48;;;3.72;;
52494;SDS011;38405;53.212;5.660;2022-11-23T12:58:26;13.48;;;2.65;;
52494;SDS011;38405;53.212;5.660;2022-11-23T13:01:05;17.65;;;3.08;;
52494;SDS011;38405;53.212;5.660;2022-11-23T13:06:26;12.65;;;2.72;;
52494;SDS011;38405;53.212;5.660;2022-11-23T13:17:14;11.30;;;2.47;;
52494;SDS011;38405;53.212;5.660;2022-11-23T13:22:25;10.45;;;2.67;;
52494;SDS011;38405;53.212;5.660;2022-11-23T13:25:03;8.70;;;2.20;;
52494;SDS011;38405;53.212;5.660;2022-11-23T13:27:43;15.32;;;2.90;;
52494;SDS011;38405;53.212;5.660;2022-11-23T13:32:53;11.90;;;2.47;;
52494;SDS011;38405;53.212;5.660;2022-11-23T13:40:34;11.15;;;2.85;;
52494;SDS011;38405;53.212;5.660;2022-11-23T13:43:01;12.43;;;2.90;;
52494;SDS011;38405;53.212;5.660;2022-11-23T13:45:33;10.38;;;2.65;;
52494;SDS011;38405;53.212;5.660;2022-11-23T13:50:36;18.95;;;3.90;;
52494;SDS011;38405;53.212;5.660;2022-11-23T13:56:14;10.38;;;2.97;;
52494;SDS011;38405;53.212;5.660;2022-11-23T13:59:31;12.32;;;2.08;;
52494;SDS011;38405;53.212;5.660;2022-11-23T14:02:00;12.68;;;2.53;;
52494;SDS011;38405;53.212;5.660;2022-11-23T14:04:37;8.35;;;2.50;;
52494;SDS011;38405;53.212;5.660;2022-11-23T14:15:25;11.90;;;2.10;;
52494;SDS011;38405;53.212;5.660;2022-11-23T14:20:44;11.27;;;2.35;;
52494;SDS011;38405;53.212;5.660;2022-11-23T14:26:32;8.25;;;2.25;;
52494;SDS011;38405;53.212;5.660;2022-11-23T14:29:36;13.90;;;2.85;;
52494;SDS011;38405;53.212;5.660;2022-11-23T14:41:06;8.15;;;1.83;;
52494;SDS011;38405;53.212;5.660;2022-11-23T14:43:41;15.68;;;2.22;;
52494;SDS011;38405;53.212;5.660;2022-11-23T14:46:14;15.00;;;2.47;;
52494;SDS011;38405;53.212;5.660;2022-11-23T14:48:44;11.25;;;2.53;;
52494;SDS011;38405;53.212;5.660;2022-11-23T14:51:15;10.48;;;2.75;;
52494;SDS011;38405;53.212;5.660;2022-11-23T14:53:47;8.00;;;2.45;;
52494;SDS011;38405;53.212;5.660;2022-11-23T14:56:27;9.70;;;2.67;;
52494;SDS011;38405;53.212;5.660;2022-11-23T14:59:01;16.73;;;2.47;;
52494;SDS011;38405;53.212;5.660;2022-11-23T15:01:30;9.57;;;2.20;;
52494;SDS011;38405;53.212;5.660;2022-11-23T15:03:57;15.32;;;2.95;;
52494;SDS011;38405;53.212;5.660;2022-11-23T15:06:30;10.85;;;2.13;;
52494;SDS011;38405;53.212;5.660;2022-11-23T15:09:02;11.45;;;2.40;;
52494;SDS011;38405;53.212;5.660;2022-11-23T15:11:29;17.10;;;2.30;;
52494;SDS011;38405;53.212;5.660;2022-11-23T15:13:57;11.60;;;2.67;;
52494;SDS011;38405;53.212;5.660;2022-11-23T15:16:28;14.98;;;2.60;;
52494;SDS011;38405;53.212;5.660;2022-11-23T15:19:17;10.77;;;1.92;;
52494;SDS011;38405;53.212;5.660;2022-11-23T15:21:53;10.85;;;2.33;;
52494;SDS011;38405;53.212;5.660;2022-11-23T15:24:21;10.20;;;2.20;;
52494;SDS011;38405;53.212;5.660;2022-11-23T15:26:48;8.27;;;2.05;;
52494;SDS011;38405;53.212;5.660;2022-11-23T15:29:33;10.43;;;2.20;;
52494;SDS011;38405;53.212;5.660;2022-11-23T15:32:01;8.07;;;1.80;;
52494;SDS011;38405;53.212;5.660;2022-11-23T15:34:27;10.02;;;1.88;;
52494;SDS011;38405;53.212;5.660;2022-11-23T15:36:54;8.93;;;2.17;;
52494;SDS011;38405;53.212;5.660;2022-11-23T15:39:21;7.47;;;1.98;;
52494;SDS011;38405;53.212;5.660;2022-11-23T15:41:48;8.88;;;2.13;;
52494;SDS011;38405;53.212;5.660;2022-11-23T15:46:47;6.45;;;1.85;;
52494;SDS011;38405;53.212;5.660;2022-11-23T15:49:13;9.35;;;2.20;;
52494;SDS011;38405;53.212;5.660;2022-11-23T15:51:41;15.23;;;2.33;;
52494;SDS011;38405;53.212;5.660;2022-11-23T15:54:16;9.40;;;2.10;;
52494;SDS011;38405;53.212;5.660;2022-11-23T15:56:43;13.85;;;2.47;;
52494;SDS011;38405;53.212;5.660;2022-11-23T16:02:04;20.60;;;2.53;;
52494;SDS011;38405;53.212;5.660;2022-11-23T16:04:34;8.48;;;2.30;;
52494;SDS011;38405;53.212;5.660;2022-11-23T16:07:20;13.15;;;2.40;;
52494;SDS011;38405;53.212;5.660;2022-11-23T16:09:48;9.27;;;2.22;;
52494;SDS011;38405;53.212;5.660;2022-11-23T16:12:44;5.97;;;2.03;;
52494;SDS011;38405;53.212;5.660;2022-11-23T16:18:01;12.05;;;2.58;;
52494;SDS011;38405;53.212;5.660;2022-11-23T16:20:42;10.88;;;2.70;;
52494;SDS011;38405;53.212;5.660;2022-11-23T16:23:11;13.15;;;3.22;;
52494;SDS011;38405;53.212;5.660;2022-11-23T16:25:50;11.20;;;2.80;;
52494;SDS011;38405;53.212;5.660;2022-11-23T16:28:25;11.25;;;2.80;;
52494;SDS011;38405;53.212;5.660;2022-11-23T16:30:56;10.85;;;2.67;;
52494;SDS011;38405;53.212;5.660;2022-11-23T16:33:22;8.73;;;2.67;;
52494;SDS011;38405;53.212;5.660;2022-11-23T16:35:48;9.18;;;2.78;;
52494;SDS011;38405;53.212;5.660;2022-11-23T16:38:14;24.85;;;2.78;;
52494;SDS011;38405;53.212;5.660;2022-11-23T16:40:41;7.40;;;2.35;;
52494;SDS011;38405;53.212;5.660;2022-11-23T16:43:10;16.55;;;2.75;;
52494;SDS011;38405;53.212;5.660;2022-11-23T16:45:37;6.38;;;2.30;;
52494;SDS011;38405;53.212;5.660;2022-11-23T16:48:16;17.38;;;3.08;;
52494;SDS011;38405;53.212;5.660;2022-11-23T16:50:50;6.55;;;2.13;;
52494;SDS011;38405;53.212;5.660;2022-11-23T16:53:20;12.52;;;2.58;;
52494;SDS011;38405;53.212;5.660;2022-11-23T16:55:46;7.55;;;2.40;;
52494;SDS011;38405;53.212;5.660;2022-11-23T16:58:16;13.25;;;2.80;;